sensor_id;sensor_type;location;lat;lon;timestamp;P1;P2;P0
44881;PMS5003;30612;38.304;23.786;2024-03-08T00:00:16;0.60;0.00;0.00
44881;PMS5003;30612;38.304;23.786;2024-03-08T00:02:48;0.00;0.00;0.00
44881;PMS5003;30612;38.304;23.786;2024-03-08T00:05:17;0.00;0.00;0.00
44881;PMS5003;30612;38.304;23.786;2024-03-08T00:07:45;0.00;0.00;0.00
44881;PMS5003;30612;38.304;23.786;2024-03-08T00:10:13;0.00;0.00;0.00
44881;PMS5003;30612;38.304;23.786;2024-03-08T00:12:42;0.00;0.00;0.00
44881;PMS5003;30612;38.304;23.786;2024-03-08T00:15:11;0.60;0.40;0.00
44881;PMS5003;30612;38.304;23.786;2024-03-08T00:17:42;1.00;0.00;0.00
44881;PMS5003;30612;38.304;23.786;2024-03-08T00:20:11;0.00;0.00;0.00
44881;PMS5003;30612;38.304;23.786;2024-03-08T00:22:41;0.00;0.00;0.00
44881;PMS5003;30612;38.304;23.786;2024-03-08T00:25:08;1.00;1.00;1.00
44881;PMS5003;30612;38.304;23.786;2024-03-08T00:27:36;1.40;1.00;0.00
44881;PMS5003;30612;38.304;23.786;2024-03-08T00:30:04;0.00;0.00;0.00
44881;PMS5003;30612;38.304;23.786;2024-03-08T00:32:32;0.00;0.00;0.00
44881;PMS5003;30612;38.304;23.786;2024-03-08T00:35:00;1.00;1.00;0.00
44881;PMS5003;30612;38.304;23.786;2024-03-08T00:37:27;0.00;0.00;0.00
44881;PMS5003;30612;38.304;23.786;2024-03-08T00:39:55;0.00;0.00;0.00
44881;PMS5003;30612;38.304;23.786;2024-03-08T00:42:22;1.00;1.00;0.00
44881;PMS5003;30612;38.304;23.786;2024-03-08T00:44:51;0.20;0.20;0.00
44881;PMS5003;30612;38.304;23.786;2024-03-08T00:47:18;0.00;0.00;0.00
44881;PMS5003;30612;38.304;23.786;2024-03-08T00:49:46;0.40;0.40;0.00
44881;PMS5003;30612;38.304;23.786;2024-03-08T00:52:13;0.00;0.00;0.00
44881;PMS5003;30612;38.304;23.786;2024-03-08T00:54:41;0.00;0.00;0.00
44881;PMS5003;30612;38.304;23.786;2024-03-08T00:57:10;0.00;0.00;0.00
44881;PMS5003;30612;38.304;23.786;2024-03-08T00:59:38;0.00;0.00;0.00
44881;PMS5003;30612;38.304;23.786;2024-03-08T01:02:06;0.00;0.00;0.00
44881;PMS5003;30612;38.304;23.786;2024-03-08T01:04:35;1.00;1.00;0.00
44881;PMS5003;30612;38.304;23.786;2024-03-08T01:07:03;0.80;0.80;0.00
44881;PMS5003;30612;38.304;23.786;2024-03-08T01:09:30;0.00;0.00;0.00
44881;PMS5003;30612;38.304;23.786;2024-03-08T01:11:58;2.00;1.00;0.00
44881;PMS5003;30612;38.304;23.786;2024-03-08T01:14:26;0.00;0.00;0.00
44881;PMS5003;30612;38.304;23.786;2024-03-08T01:16:53;0.40;0.40;0.00
44881;PMS5003;30612;38.304;23.786;2024-03-08T01:19:21;0.00;0.00;0.00
44881;PMS5003;30612;38.304;23.786;2024-03-08T01:21:49;0.00;0.00;0.00
44881;PMS5003;30612;38.304;23.786;2024-03-08T01:24:24;2.00;1.20;1.20
44881;PMS5003;30612;38.304;23.786;2024-03-08T01:26:51;0.60;0.60;0.20
44881;PMS5003;30612;38.304;23.786;2024-03-08T01:29:19;0.00;0.00;0.00
44881;PMS5003;30612;38.304;23.786;2024-03-08T01:31:46;0.00;0.00;0.00
44881;PMS5003;30612;38.304;23.786;2024-03-08T01:34:13;0.00;0.00;0.00
44881;PMS5003;30612;38.304;23.786;2024-03-08T01:36:41;0.40;0.40;0.00
44881;PMS5003;30612;38.304;23.786;2024-03-08T01:39:08;1.00;0.00;0.00
44881;PMS5003;30612;38.304;23.786;2024-03-08T01:41:36;0.00;0.00;0.00
44881;PMS5003;30612;38.304;23.786;2024-03-08T01:44:04;0.00;0.00;0.00
44881;PMS5003;30612;38.304;23.786;2024-03-08T01:46:34;0.00;0.00;0.00
44881;PMS5003;30612;38.304;23.786;2024-03-08T01:49:01;0.00;0.00;0.00
44881;PMS5003;30612;38.304;23.786;2024-03-08T01:51:29;0.00;0.00;0.00
44881;PMS5003;30612;38.304;23.786;2024-03-08T01:53:58;0.00;0.00;0.00
44881;PMS5003;30612;38.304;23.786;2024-03-08T01:56:28;1.20;0.00;0.00
44881;PMS5003;30612;38.304;23.786;2024-03-08T01:58:56;0.00;0.00;0.00
44881;PMS5003;30612;38.304;23.786;2024-03-08T02:01:23;0.00;0.00;0.00
44881;PMS5003;30612;38.304;23.786;2024-03-08T02:03:50;0.00;0.00;0.00
44881;PMS5003;30612;38.304;23.786;2024-03-08T02:06:18;0.00;0.00;0.00
44881;PMS5003;30612;38.304;23.786;2024-03-08T02:08:45;0.40;0.40;0.00
44881;PMS5003;30612;38.304;23.786;2024-03-08T02:11:13;0.00;0.00;0.00
44881;PMS5003;30612;38.304;23.786;2024-03-08T02:13:41;0.00;0.00;0.00
44881;PMS5003;30612;38.304;23.786;2024-03-08T02:16:08;0.00;0.00;0.00
44881;PMS5003;30612;38.304;23.786;2024-03-08T02:18:36;0.60;0.00;0.00
44881;PMS5003;30612;38.304;23.786;2024-03-08T02:21:04;0.00;0.00;0.00
44881;PMS5003;30612;38.304;23.786;2024-03-08T02:23:33;0.00;0.00;0.00
44881;PMS5003;30612;38.304;23.786;2024-03-08T02:26:00;0.00;0.00;0.00
44881;PMS5003;30612;38.304;23.786;2024-03-08T02:28:28;0.00;0.00;0.00
44881;PMS5003;30612;38.304;23.786;2024-03-08T02:30:56;1.00;1.00;0.00
44881;PMS5003;30612;38.304;23.786;2024-03-08T02:33:25;0.00;0.00;0.00
44881;PMS5003;30612;38.304;23.786;2024-03-08T02:35:54;0.00;0.00;0.00
44881;PMS5003;30612;38.304;23.786;2024-03-08T02:38:22;0.00;0.00;0.00
44881;PMS5003;30612;38.304;23.786;2024-03-08T02:40:53;1.00;0.00;0.00
44881;PMS5003;30612;38.304;23.786;2024-03-08T02:43:21;1.40;0.40;0.00
44881;PMS5003;30612;38.304;23.786;2024-03-08T02:45:50;0.00;0.00;0.00
44881;PMS5003;30612;38.304;23.786;2024-03-08T02:48:19;0.00;0.00;0.00
44881;PMS5003;30612;38.304;23.786;2024-03-08T02:50:49;0.00;0.00;0.00
44881;PMS5003;30612;38.304;23.786;2024-03-08T02:53:18;1.00;0.60;0.00
44881;PMS5003;30612;38.304;23.786;2024-03-08T02:55:46;0.00;0.00;0.00
44881;PMS5003;30612;38.304;23.786;2024-03-08T02:58:13;0.60;0.60;0.00
44881;PMS5003;30612;38.304;23.786;2024-03-08T03:00:41;0.00;0.00;0.00
44881;PMS5003;30612;38.304;23.786;2024-03-08T03:03:10;0.00;0.00;0.00
44881;PMS5003;30612;38.304;23.786;2024-03-08T03:05:37;1.80;1.00;0.00
44881;PMS5003;30612;38.304;23.786;2024-03-08T03:08:07;0.00;0.00;0.00
44881;PMS5003;30612;38.304;23.786;2024-03-08T03:10:36;0.00;0.00;0.00
44881;PMS5003;30612;38.304;23.786;2024-03-08T03:13:04;2.00;0.20;0.00
44881;PMS5003;30612;38.304;23.786;2024-03-08T03:15:31;0.00;0.00;0.00
44881;PMS5003;30612;38.304;23.786;2024-03-08T03:18:00;1.00;0.00;0.00
44881;PMS5003;30612;38.304;23.786;2024-03-08T03:20:28;0.60;0.00;0.00
44881;PMS5003;30612;38.304;23.786;2024-03-08T03:23:08;0.00;0.00;0.00
44881;PMS5003;30612;38.304;23.786;2024-03-08T03:25:36;1.00;0.00;0.00
44881;PMS5003;30612;38.304;23.786;2024-03-08T03:28:05;0.00;0.00;0.00
44881;PMS5003;30612;38.304;23.786;2024-03-08T03:30:34;0.00;0.00;0.00
44881;PMS5003;30612;38.304;23.786;2024-03-08T03:33:02;0.00;0.00;0.00
44881;PMS5003;30612;38.304;23.786;2024-03-08T03:35:34;2.00;1.00;0.00
44881;PMS5003;30612;38.304;23.786;2024-03-08T03:38:04;1.20;0.60;0.00
44881;PMS5003;30612;38.304;23.786;2024-03-08T03:40:37;0.00;0.00;0.00
44881;PMS5003;30612;38.304;23.786;2024-03-08T03:43:05;0.00;0.00;0.00
44881;PMS5003;30612;38.304;23.786;2024-03-08T03:45:34;2.80;2.80;1.20
44881;PMS5003;30612;38.304;23.786;2024-03-08T03:48:04;0.00;0.00;0.00
44881;PMS5003;30612;38.304;23.786;2024-03-08T03:50:37;0.00;0.00;0.00
44881;PMS5003;30612;38.304;23.786;2024-03-08T03:53:05;0.00;0.00;0.00
44881;PMS5003;30612;38.304;23.786;2024-03-08T03:55:36;0.00;0.00;0.00
44881;PMS5003;30612;38.304;23.786;2024-03-08T03:58:07;0.00;0.00;0.00
44881;PMS5003;30612;38.304;23.786;2024-03-08T04:00:37;0.80;0.80;0.80
44881;PMS5003;30612;38.304;23.786;2024-03-08T04:03:05;0.00;0.00;0.00
44881;PMS5003;30612;38.304;23.786;2024-03-08T04:05:33;0.00;0.00;0.00
44881;PMS5003;30612;38.304;23.786;2024-03-08T04:08:01;0.00;0.00;0.00
44881;PMS5003;30612;38.304;23.786;2024-03-08T04:10:30;0.00;0.00;0.00
44881;PMS5003;30612;38.304;23.786;2024-03-08T04:12:57;0.00;0.00;0.00
44881;PMS5003;30612;38.304;23.786;2024-03-08T04:15:24;0.00;0.00;0.00
44881;PMS5003;30612;38.304;23.786;2024-03-08T04:17:52;0.00;0.00;0.00
44881;PMS5003;30612;38.304;23.786;2024-03-08T04:20:20;0.00;0.00;0.00
44881;PMS5003;30612;38.304;23.786;2024-03-08T04:22:48;0.00;0.00;0.00
44881;PMS5003;30612;38.304;23.786;2024-03-08T04:25:16;0.00;0.00;0.00
44881;PMS5003;30612;38.304;23.786;2024-03-08T04:27:44;0.00;0.00;0.00
44881;PMS5003;30612;38.304;23.786;2024-03-08T04:30:11;0.00;0.00;0.00
44881;PMS5003;30612;38.304;23.786;2024-03-08T04:32:39;0.00;0.00;0.00
44881;PMS5003;30612;38.304;23.786;2024-03-08T04:35:08;0.00;0.00;0.00
44881;PMS5003;30612;38.304;23.786;2024-03-08T04:37:35;0.00;0.00;0.00
44881;PMS5003;30612;38.304;23.786;2024-03-08T04:40:03;0.00;0.00;0.00
44881;PMS5003;30612;38.304;23.786;2024-03-08T04:42:31;0.00;0.00;0.00
44881;PMS5003;30612;38.304;23.786;2024-03-08T04:44:59;0.60;0.60;0.00
44881;PMS5003;30612;38.304;23.786;2024-03-08T04:47:27;0.00;0.00;0.00
44881;PMS5003;30612;38.304;23.786;2024-03-08T04:49:55;0.00;0.00;0.00
44881;PMS5003;30612;38.304;23.786;2024-03-08T04:52:23;1.00;1.00;0.00
44881;PMS5003;30612;38.304;23.786;2024-03-08T04:54:51;0.00;0.00;0.00
44881;PMS5003;30612;38.304;23.786;2024-03-08T04:57:18;0.60;0.60;0.00
44881;PMS5003;30612;38.304;23.786;2024-03-08T04:59:46;1.00;0.00;0.00
44881;PMS5003;30612;38.304;23.786;2024-03-08T05:02:13;0.00;0.00;0.00
44881;PMS5003;30612;38.304;23.786;2024-03-08T05:04:41;0.00;0.00;0.00
44881;PMS5003;30612;38.304;23.786;2024-03-08T05:07:09;0.00;0.00;0.00
44881;PMS5003;30612;38.304;23.786;2024-03-08T05:09:37;0.00;0.00;0.00
44881;PMS5003;30612;38.304;23.786;2024-03-08T05:12:04;0.00;0.00;0.00
44881;PMS5003;30612;38.304;23.786;2024-03-08T05:14:32;0.00;0.00;0.00
44881;PMS5003;30612;38.304;23.786;2024-03-08T05:17:01;0.00;0.00;0.00
44881;PMS5003;30612;38.304;23.786;2024-03-08T05:19:29;0.00;0.00;0.00
44881;PMS5003;30612;38.304;23.786;2024-03-08T05:22:00;0.00;0.00;0.00
44881;PMS5003;30612;38.304;23.786;2024-03-08T05:24:28;0.00;0.00;0.00
44881;PMS5003;30612;38.304;23.786;2024-03-08T05:26:57;0.00;0.00;0.00
44881;PMS5003;30612;38.304;23.786;2024-03-08T05:29:26;0.60;0.60;0.00
44881;PMS5003;30612;38.304;23.786;2024-03-08T05:31:54;0.00;0.00;0.00
44881;PMS5003;30612;38.304;23.786;2024-03-08T05:34:21;0.00;0.00;0.00
44881;PMS5003;30612;38.304;23.786;2024-03-08T05:36:49;0.00;0.00;0.00
44881;PMS5003;30612;38.304;23.786;2024-03-08T05:39:18;1.00;1.00;0.20
44881;PMS5003;30612;38.304;23.786;2024-03-08T05:41:47;3.80;1.20;0.80
44881;PMS5003;30612;38.304;23.786;2024-03-08T05:44:14;0.00;0.00;0.00
44881;PMS5003;30612;38.304;23.786;2024-03-08T05:46:44;0.00;0.00;0.00
44881;PMS5003;30612;38.304;23.786;2024-03-08T05:49:14;0.00;0.00;0.00
44881;PMS5003;30612;38.304;23.786;2024-03-08T05:51:41;1.00;1.00;0.00
44881;PMS5003;30612;38.304;23.786;2024-03-08T05:54:11;1.60;1.00;0.00
44881;PMS5003;30612;38.304;23.786;2024-03-08T05:56:43;1.00;1.00;0.20
44881;PMS5003;30612;38.304;23.786;2024-03-08T05:59:11;0.80;0.20;0.00
44881;PMS5003;30612;38.304;23.786;2024-03-08T06:01:40;0.40;0.00;0.00
44881;PMS5003;30612;38.304;23.786;2024-03-08T06:04:09;0.00;0.00;0.00
44881;PMS5003;30612;38.304;23.786;2024-03-08T06:06:38;0.40;0.40;0.00
44881;PMS5003;30612;38.304;23.786;2024-03-08T06:09:07;0.00;0.00;0.00
44881;PMS5003;30612;38.304;23.786;2024-03-08T06:11:44;0.40;0.40;0.00
44881;PMS5003;30612;38.304;23.786;2024-03-08T06:14:12;0.00;0.00;0.00
44881;PMS5003;30612;38.304;23.786;2024-03-08T06:16:39;0.00;0.00;0.00
44881;PMS5003;30612;38.304;23.786;2024-03-08T06:19:06;0.00;0.00;0.00
44881;PMS5003;30612;38.304;23.786;2024-03-08T06:21:34;0.00;0.00;0.00
44881;PMS5003;30612;38.304;23.786;2024-03-08T06:24:02;0.00;0.00;0.00
44881;PMS5003;30612;38.304;23.786;2024-03-08T06:26:29;0.00;0.00;0.00
44881;PMS5003;30612;38.304;23.786;2024-03-08T06:28:58;0.00;0.00;0.00
44881;PMS5003;30612;38.304;23.786;2024-03-08T06:31:25;0.00;0.00;0.00
44881;PMS5003;30612;38.304;23.786;2024-03-08T06:33:53;0.00;0.00;0.00
44881;PMS5003;30612;38.304;23.786;2024-03-08T06:36:23;1.00;0.00;0.00
44881;PMS5003;30612;38.304;23.786;2024-03-08T06:38:51;1.00;0.00;0.00
44881;PMS5003;30612;38.304;23.786;2024-03-08T06:41:19;0.00;0.00;0.00
44881;PMS5003;30612;38.304;23.786;2024-03-08T06:43:47;0.00;0.00;0.00
44881;PMS5003;30612;38.304;23.786;2024-03-08T06:46:15;0.00;0.00;0.00
44881;PMS5003;30612;38.304;23.786;2024-03-08T06:48:43;0.00;0.00;0.00
44881;PMS5003;30612;38.304;23.786;2024-03-08T06:51:13;1.80;1.00;0.00
44881;PMS5003;30612;38.304;23.786;2024-03-08T06:53:41;0.00;0.00;0.00
44881;PMS5003;30612;38.304;23.786;2024-03-08T06:56:09;0.00;0.00;0.00
44881;PMS5003;30612;38.304;23.786;2024-03-08T06:58:36;0.20;0.00;0.00
44881;PMS5003;30612;38.304;23.786;2024-03-08T07:01:04;0.00;0.00;0.00
44881;PMS5003;30612;38.304;23.786;2024-03-08T07:03:35;0.00;0.00;0.00
44881;PMS5003;30612;38.304;23.786;2024-03-08T07:06:02;0.00;0.00;0.00
44881;PMS5003;30612;38.304;23.786;2024-03-08T07:08:30;0.00;0.00;0.00
44881;PMS5003;30612;38.304;23.786;2024-03-08T07:10:58;0.00;0.00;0.00
44881;PMS5003;30612;38.304;23.786;2024-03-08T07:13:26;0.00;0.00;0.00
44881;PMS5003;30612;38.304;23.786;2024-03-08T07:15:57;0.00;0.00;0.00
44881;PMS5003;30612;38.304;23.786;2024-03-08T07:18:28;0.00;0.00;0.00
44881;PMS5003;30612;38.304;23.786;2024-03-08T07:20:57;0.00;0.00;0.00
44881;PMS5003;30612;38.304;23.786;2024-03-08T07:23:25;0.00;0.00;0.00
44881;PMS5003;30612;38.304;23.786;2024-03-08T07:26:16;0.00;0.00;0.00
44881;PMS5003;30612;38.304;23.786;2024-03-08T07:28:45;0.00;0.00;0.00
44881;PMS5003;30612;38.304;23.786;2024-03-08T07:31:12;0.00;0.00;0.00
44881;PMS5003;30612;38.304;23.786;2024-03-08T07:33:40;0.80;0.00;0.00
44881;PMS5003;30612;38.304;23.786;2024-03-08T07:36:07;0.00;0.00;0.00
44881;PMS5003;30612;38.304;23.786;2024-03-08T07:38:35;0.00;0.00;0.00
44881;PMS5003;30612;38.304;23.786;2024-03-08T07:41:03;0.00;0.00;0.00
44881;PMS5003;30612;38.304;23.786;2024-03-08T07:43:31;0.00;0.00;0.00
44881;PMS5003;30612;38.304;23.786;2024-03-08T07:45:59;0.00;0.00;0.00
44881;PMS5003;30612;38.304;23.786;2024-03-08T07:48:27;0.60;0.00;0.00
44881;PMS5003;30612;38.304;23.786;2024-03-08T07:50:54;0.00;0.00;0.00
44881;PMS5003;30612;38.304;23.786;2024-03-08T07:53:22;0.00;0.00;0.00
44881;PMS5003;30612;38.304;23.786;2024-03-08T07:55:53;0.60;0.60;0.00
44881;PMS5003;30612;38.304;23.786;2024-03-08T07:58:20;0.00;0.00;0.00
44881;PMS5003;30612;38.304;23.786;2024-03-08T08:00:48;0.00;0.00;0.00
44881;PMS5003;30612;38.304;23.786;2024-03-08T08:03:16;0.00;0.00;0.00
44881;PMS5003;30612;38.304;23.786;2024-03-08T08:05:47;0.00;0.00;0.00
44881;PMS5003;30612;38.304;23.786;2024-03-08T08:08:16;0.00;0.00;0.00
44881;PMS5003;30612;38.304;23.786;2024-03-08T08:10:43;0.00;0.00;0.00
44881;PMS5003;30612;38.304;23.786;2024-03-08T08:13:10;0.00;0.00;0.00
44881;PMS5003;30612;38.304;23.786;2024-03-08T08:15:38;0.00;0.00;0.00
44881;PMS5003;30612;38.304;23.786;2024-03-08T08:18:05;0.00;0.00;0.00
44881;PMS5003;30612;38.304;23.786;2024-03-08T08:20:33;0.00;0.00;0.00
44881;PMS5003;30612;38.304;23.786;2024-03-08T08:23:01;0.00;0.00;0.00
44881;PMS5003;30612;38.304;23.786;2024-03-08T08:25:28;0.00;0.00;0.00
44881;PMS5003;30612;38.304;23.786;2024-03-08T08:27:56;0.00;0.00;0.00
44881;PMS5003;30612;38.304;23.786;2024-03-08T08:30:24;0.00;0.00;0.00
44881;PMS5003;30612;38.304;23.786;2024-03-08T08:32:51;0.00;0.00;0.00
44881;PMS5003;30612;38.304;23.786;2024-03-08T08:35:19;0.00;0.00;0.00
44881;PMS5003;30612;38.304;23.786;2024-03-08T08:37:46;0.20;0.20;0.00
44881;PMS5003;30612;38.304;23.786;2024-03-08T08:40:14;0.00;0.00;0.00
44881;PMS5003;30612;38.304;23.786;2024-03-08T08:42:42;1.00;1.00;0.00
44881;PMS5003;30612;38.304;23.786;2024-03-08T08:45:10;0.00;0.00;0.00
44881;PMS5003;30612;38.304;23.786;2024-03-08T08:47:46;0.20;0.20;0.00
44881;PMS5003;30612;38.304;23.786;2024-03-08T08:50:14;0.00;0.00;0.00
44881;PMS5003;30612;38.304;23.786;2024-03-08T08:52:42;0.40;0.40;0.00
44881;PMS5003;30612;38.304;23.786;2024-03-08T08:55:10;0.00;0.00;0.00
44881;PMS5003;30612;38.304;23.786;2024-03-08T08:57:41;0.00;0.00;0.00
44881;PMS5003;30612;38.304;23.786;2024-03-08T09:00:09;0.40;0.40;0.00
44881;PMS5003;30612;38.304;23.786;2024-03-08T09:02:42;0.00;0.00;0.00
44881;PMS5003;30612;38.304;23.786;2024-03-08T09:05:10;0.00;0.00;0.00
44881;PMS5003;30612;38.304;23.786;2024-03-08T09:07:38;1.00;0.00;0.00
44881;PMS5003;30612;38.304;23.786;2024-03-08T09:10:06;0.00;0.00;0.00
44881;PMS5003;30612;38.304;23.786;2024-03-08T09:12:39;2.40;0.80;0.00
44881;PMS5003;30612;38.304;23.786;2024-03-08T09:15:07;0.00;0.00;0.00
44881;PMS5003;30612;38.304;23.786;2024-03-08T09:17:40;0.00;0.00;0.00
44881;PMS5003;30612;38.304;23.786;2024-03-08T09:20:09;0.00;0.00;0.00
44881;PMS5003;30612;38.304;23.786;2024-03-08T09:22:37;0.00;0.00;0.00
44881;PMS5003;30612;38.304;23.786;2024-03-08T09:25:05;0.00;0.00;0.00
44881;PMS5003;30612;38.304;23.786;2024-03-08T09:27:34;0.00;0.00;0.00
44881;PMS5003;30612;38.304;23.786;2024-03-08T09:30:06;0.00;0.00;0.00
44881;PMS5003;30612;38.304;23.786;2024-03-08T09:32:34;0.00;0.00;0.00
44881;PMS5003;30612;38.304;23.786;2024-03-08T09:35:02;0.00;0.00;0.00
44881;PMS5003;30612;38.304;23.786;2024-03-08T09:37:30;0.00;0.00;0.00
44881;PMS5003;30612;38.304;23.786;2024-03-08T09:39:57;0.00;0.00;0.00
44881;PMS5003;30612;38.304;23.786;2024-03-08T09:42:26;0.00;0.00;0.00
44881;PMS5003;30612;38.304;23.786;2024-03-08T09:44:53;0.00;0.00;0.00
44881;PMS5003;30612;38.304;23.786;2024-03-08T09:47:20;1.00;1.00;0.00
44881;PMS5003;30612;38.304;23.786;2024-03-08T09:49:49;0.00;0.00;0.00
44881;PMS5003;30612;38.304;23.786;2024-03-08T09:52:17;0.00;0.00;0.00
44881;PMS5003;30612;38.304;23.786;2024-03-08T09:54:45;0.00;0.00;0.00
44881;PMS5003;30612;38.304;23.786;2024-03-08T09:57:13;0.00;0.00;0.00
44881;PMS5003;30612;38.304;23.786;2024-03-08T09:59:41;0.00;0.00;0.00
44881;PMS5003;30612;38.304;23.786;2024-03-08T10:02:14;1.00;1.00;0.00
44881;PMS5003;30612;38.304;23.786;2024-03-08T10:04:43;0.60;0.00;0.00
44881;PMS5003;30612;38.304;23.786;2024-03-08T10:07:13;0.20;0.20;0.00
44881;PMS5003;30612;38.304;23.786;2024-03-08T10:09:40;0.00;0.00;0.00
44881;PMS5003;30612;38.304;23.786;2024-03-08T10:12:14;1.00;1.00;0.00
44881;PMS5003;30612;38.304;23.786;2024-03-08T10:14:42;1.00;1.00;0.00
44881;PMS5003;30612;38.304;23.786;2024-03-08T10:17:10;0.00;0.00;0.00
44881;PMS5003;30612;38.304;23.786;2024-03-08T10:19:37;1.00;1.00;0.00
44881;PMS5003;30612;38.304;23.786;2024-03-08T10:22:06;1.40;0.00;0.00
44881;PMS5003;30612;38.304;23.786;2024-03-08T10:24:34;1.00;1.00;0.00
44881;PMS5003;30612;38.304;23.786;2024-03-08T10:27:04;0.00;0.00;0.00
44881;PMS5003;30612;38.304;23.786;2024-03-08T10:29:32;1.40;1.40;0.00
44881;PMS5003;30612;38.304;23.786;2024-03-08T10:32:00;0.20;0.20;0.00
44881;PMS5003;30612;38.304;23.786;2024-03-08T10:34:29;0.00;0.00;0.00
44881;PMS5003;30612;38.304;23.786;2024-03-08T10:36:57;0.00;0.00;0.00
44881;PMS5003;30612;38.304;23.786;2024-03-08T10:39:37;0.00;0.00;0.00
44881;PMS5003;30612;38.304;23.786;2024-03-08T10:42:05;0.00;0.00;0.00
44881;PMS5003;30612;38.304;23.786;2024-03-08T10:47:28;0.00;0.00;0.00
44881;PMS5003;30612;38.304;23.786;2024-03-08T10:50:19;0.00;0.00;0.00
44881;PMS5003;30612;38.304;23.786;2024-03-08T10:52:49;0.00;0.00;0.00
44881;PMS5003;30612;38.304;23.786;2024-03-08T10:55:19;0.00;0.00;0.00
44881;PMS5003;30612;38.304;23.786;2024-03-08T10:57:50;0.00;0.00;0.00
44881;PMS5003;30612;38.304;23.786;2024-03-08T11:00:18;0.00;0.00;0.00
44881;PMS5003;30612;38.304;23.786;2024-03-08T11:02:53;0.00;0.00;0.00
44881;PMS5003;30612;38.304;23.786;2024-03-08T11:05:37;0.40;0.40;0.00
44881;PMS5003;30612;38.304;23.786;2024-03-08T11:10:51;0.00;0.00;0.00
44881;PMS5003;30612;38.304;23.786;2024-03-08T11:13:36;0.40;0.40;0.00
44881;PMS5003;30612;38.304;23.786;2024-03-08T11:16:39;0.00;0.00;0.00
44881;PMS5003;30612;38.304;23.786;2024-03-08T11:19:00;0.00;0.00;0.00
44881;PMS5003;30612;38.304;23.786;2024-03-08T11:21:32;0.00;0.00;0.00
44881;PMS5003;30612;38.304;23.786;2024-03-08T11:24:07;0.40;0.40;0.00
44881;PMS5003;30612;38.304;23.786;2024-03-08T11:26:41;0.00;0.00;0.00
44881;PMS5003;30612;38.304;23.786;2024-03-08T11:34:40;0.00;0.00;0.00
44881;PMS5003;30612;38.304;23.786;2024-03-08T11:37:16;0.00;0.00;0.00
44881;PMS5003;30612;38.304;23.786;2024-03-08T11:39:53;0.00;0.00;0.00
44881;PMS5003;30612;38.304;23.786;2024-03-08T11:42:26;0.00;0.00;0.00
44881;PMS5003;30612;38.304;23.786;2024-03-08T11:44:54;0.00;0.00;0.00
44881;PMS5003;30612;38.304;23.786;2024-03-08T11:47:22;0.20;0.20;0.00
44881;PMS5003;30612;38.304;23.786;2024-03-08T11:49:49;1.40;0.00;0.00
44881;PMS5003;30612;38.304;23.786;2024-03-08T11:52:17;0.00;0.00;0.00
44881;PMS5003;30612;38.304;23.786;2024-03-08T11:54:51;0.00;0.00;0.00
44881;PMS5003;30612;38.304;23.786;2024-03-08T11:57:25;0.00;0.00;0.00
44881;PMS5003;30612;38.304;23.786;2024-03-08T11:59:52;1.00;1.00;0.00
44881;PMS5003;30612;38.304;23.786;2024-03-08T12:02:23;0.00;0.00;0.00
44881;PMS5003;30612;38.304;23.786;2024-03-08T12:04:58;0.80;0.60;0.00
44881;PMS5003;30612;38.304;23.786;2024-03-08T12:07:27;1.00;1.00;0.00
44881;PMS5003;30612;38.304;23.786;2024-03-08T12:12:49;0.40;0.20;0.00
44881;PMS5003;30612;38.304;23.786;2024-03-08T12:15:19;0.00;0.00;0.00
44881;PMS5003;30612;38.304;23.786;2024-03-08T12:18:01;0.00;0.00;0.00
44881;PMS5003;30612;38.304;23.786;2024-03-08T12:20:32;0.60;0.60;0.00
44881;PMS5003;30612;38.304;23.786;2024-03-08T12:22:59;1.60;1.60;0.00
44881;PMS5003;30612;38.304;23.786;2024-03-08T12:25:27;1.00;1.00;0.80
44881;PMS5003;30612;38.304;23.786;2024-03-08T12:28:08;0.00;0.00;0.00
44881;PMS5003;30612;38.304;23.786;2024-03-08T12:30:49;1.00;1.00;0.00
44881;PMS5003;30612;38.304;23.786;2024-03-08T12:33:22;1.00;1.00;0.00
44881;PMS5003;30612;38.304;23.786;2024-03-08T12:35:53;0.80;0.80;0.00
44881;PMS5003;30612;38.304;23.786;2024-03-08T12:38:23;1.00;1.00;0.00
44881;PMS5003;30612;38.304;23.786;2024-03-08T12:40:57;1.00;1.00;0.00
44881;PMS5003;30612;38.304;23.786;2024-03-08T12:43:26;1.00;0.00;0.00
44881;PMS5003;30612;38.304;23.786;2024-03-08T12:45:58;0.80;0.80;0.00
44881;PMS5003;30612;38.304;23.786;2024-03-08T12:48:26;0.60;0.60;0.00
44881;PMS5003;30612;38.304;23.786;2024-03-08T12:50:53;1.00;1.00;0.00
44881;PMS5003;30612;38.304;23.786;2024-03-08T12:53:21;0.40;0.40;0.00
44881;PMS5003;30612;38.304;23.786;2024-03-08T12:55:50;0.40;0.40;0.00
44881;PMS5003;30612;38.304;23.786;2024-03-08T12:58:19;0.40;0.40;0.00
44881;PMS5003;30612;38.304;23.786;2024-03-08T13:00:47;0.80;0.80;0.00
44881;PMS5003;30612;38.304;23.786;2024-03-08T13:03:19;1.00;1.00;0.00
44881;PMS5003;30612;38.304;23.786;2024-03-08T13:05:48;2.00;2.00;1.00
44881;PMS5003;30612;38.304;23.786;2024-03-08T13:08:16;2.00;2.00;1.00
44881;PMS5003;30612;38.304;23.786;2024-03-08T13:10:45;2.00;2.00;1.00
44881;PMS5003;30612;38.304;23.786;2024-03-08T13:13:13;4.60;3.00;2.00
44881;PMS5003;30612;38.304;23.786;2024-03-08T13:15:44;5.40;5.40;2.20
44881;PMS5003;30612;38.304;23.786;2024-03-08T13:18:12;6.00;4.20;2.00
44881;PMS5003;30612;38.304;23.786;2024-03-08T13:20:39;2.80;2.80;1.00
44881;PMS5003;30612;38.304;23.786;2024-03-08T13:23:13;4.80;3.20;1.00
44881;PMS5003;30612;38.304;23.786;2024-03-08T13:25:41;3.20;3.20;1.00
44881;PMS5003;30612;38.304;23.786;2024-03-08T13:28:09;2.20;2.20;1.40
44881;PMS5003;30612;38.304;23.786;2024-03-08T13:30:37;2.00;2.00;1.00
44881;PMS5003;30612;38.304;23.786;2024-03-08T13:33:06;2.60;2.00;1.00
44881;PMS5003;30612;38.304;23.786;2024-03-08T13:35:34;2.00;2.00;0.20
44881;PMS5003;30612;38.304;23.786;2024-03-08T13:38:02;2.20;2.00;1.00
44881;PMS5003;30612;38.304;23.786;2024-03-08T13:40:36;1.00;1.00;1.00
44881;PMS5003;30612;38.304;23.786;2024-03-08T13:43:03;4.00;2.00;1.40
44881;PMS5003;30612;38.304;23.786;2024-03-08T13:45:31;1.80;1.00;1.00
44881;PMS5003;30612;38.304;23.786;2024-03-08T13:48:00;2.00;1.00;0.20
44881;PMS5003;30612;38.304;23.786;2024-03-08T13:50:31;1.20;1.20;0.40
44881;PMS5003;30612;38.304;23.786;2024-03-08T13:52:59;3.00;3.00;1.00
44881;PMS5003;30612;38.304;23.786;2024-03-08T13:55:27;1.20;1.20;0.60
44881;PMS5003;30612;38.304;23.786;2024-03-08T13:57:54;1.60;1.60;0.80
44881;PMS5003;30612;38.304;23.786;2024-03-08T14:00:24;1.00;1.00;1.00
44881;PMS5003;30612;38.304;23.786;2024-03-08T14:02:54;1.40;1.40;1.00
44881;PMS5003;30612;38.304;23.786;2024-03-08T14:05:22;1.20;1.20;0.20
44881;PMS5003;30612;38.304;23.786;2024-03-08T14:07:50;1.40;1.40;1.00
44881;PMS5003;30612;38.304;23.786;2024-03-08T14:10:17;3.20;2.00;1.80
44881;PMS5003;30612;38.304;23.786;2024-03-08T14:12:49;3.80;2.00;1.60
44881;PMS5003;30612;38.304;23.786;2024-03-08T14:15:17;2.00;2.00;1.00
44881;PMS5003;30612;38.304;23.786;2024-03-08T14:17:45;9.00;5.60;3.00
44881;PMS5003;30612;38.304;23.786;2024-03-08T14:20:14;8.60;7.00;5.00
44881;PMS5003;30612;38.304;23.786;2024-03-08T14:22:41;8.80;8.00;3.60
44881;PMS5003;30612;38.304;23.786;2024-03-08T14:25:09;8.20;6.80;3.20
44881;PMS5003;30612;38.304;23.786;2024-03-08T14:27:45;8.60;8.60;4.20
44881;PMS5003;30612;38.304;23.786;2024-03-08T14:30:13;7.80;7.80;3.80
44881;PMS5003;30612;38.304;23.786;2024-03-08T14:32:58;8.20;8.20;4.20